Diboll, TX

3:45 AM CDT on April 21, 2015 (GMT -0500)
Crockett | | Change Station
CLOSE
Current Station
Airport
Location: Crockett,
Elevation: 348 ft
Nearby Weather Stations
Active Advisory: Flood Warning

Elev 348 ft 31.31 °N, 95.40 °W | Updated 10 minutes ago

Overcast
Overcast
55 °F
Feels Like 55 °F
N
4
Wind Variable Wind from NE

Today
High -- | Low -- °F
--% Chance of Precip.
Yesterday
High -- | Low -- °F
Precip. -- in
6:44 AM 7:51 PM
Waxing Crescent, 9% visible
Pressure 30.03 in
Visibility 10.0 miles
Clouds Clear
Dew Point 52 °F
Humidity 88%
Rainfall 0.00 in
Snow Depth Not available.
UV 0 out of 12
Pollen 8.40 out of 12
Air Quality Not available.
Flu Activity Local Activity
METAR KDKR 210835Z AUTO 04003KT 10SM CLR 13/11 A3003 RMK AO2

More Conditions Fewer Conditions

Pressure 30.03 in
Visibility 10.0 miles
Clouds Clear
Dew Point 52 °F
Humidity 88%
Rainfall 0.00 in
Snow Depth Not available.
UV 0 out of 12
Pollen 8.40 out of 12
Air Quality Not available.
Flu Activity Local Activity
METAR KDKR 210835Z AUTO 04003KT 10SM CLR 13/11 A3003 RMK AO2

More Conditions Fewer Conditions

10-Day Weather Forecast

Almanac

Astronomy

Apr. 21, 2015 Rise Set
Actual Time
Civil Twilight
Nautical Twilight
Astronomical Twilight
Moon
Length of Visible Light
Length of Day
Tomorrow will be .
, % of the Moon is Illuminated

Today's Extremes

State Highs State Lows

Community

WunderPhotos

Upload Photos

1,815,329 photos uploaded!

WunderBlogs® & News

Nearby

Air Quality

  Air Quality AQ Index Pollutant
Not available.

Snow Depth

Station Depth Elevation

Earthquake Activity

City Distance Mag. Time & Date
Minimum magnitude displayed is 2.5.

Coastal Water Temperatures

Place Temperature

Stations

Nearby Weather Stations

Station Location Temp. Windchill Dew Point Humidity Wind Precip. Elev Updated Type
                   
Flood Warning
Statement as of 9:45 AM CDT on April 20, 2015

... The Flood Warning extended until further notice... the Flood
Warning continues for
the Neches River near Diboll, Texas.
* From this evening until further notice... or until the warning is
cancelled.
* At 915 am Monday the stage was 11.8 feet.
* Minor flooding is forecast.
* Flood stage is 12 feet.
* Forecast... rise above flood stage by this evening and continue to
rise to near 13.0 feet by Friday evening. Additional rises remain
possible thereafter.
* Impact... at 12.0 feet... minor lowland flooding occurs.


Lat... Lon 3138 9492 3107 9455 3103 9459 3111 9485 3136 9500